createdAt,value
2019-04-21T00:01:59.479Z,47.57
2019-04-21T00:04:50.731Z,43.53
2019-04-21T00:07:44.977Z,38.40
2019-04-21T00:10:29.713Z,47.08
2019-04-21T00:13:08.033Z,41.00
2019-04-21T00:15:48.877Z,41.07
2019-04-21T00:19:03.210Z,46.67
2019-04-21T00:22:08.559Z,43.63
2019-04-21T00:24:56.910Z,49.67
2019-04-21T00:27:58.872Z,177.55
2019-04-21T00:31:10.420Z,206.50
2019-04-21T00:33:42.692Z,89.23
2019-04-21T00:36:39.896Z,56.47
2019-04-21T00:39:45.037Z,53.60
2019-04-21T00:42:34.550Z,49.77
2019-04-21T00:45:31.393Z,60.83
2019-04-21T00:48:45.653Z,47.90
2019-04-21T00:51:33.429Z,46.87
2019-04-21T00:55:01.714Z,49.87
2019-04-21T00:57:43.085Z,50.05
2019-04-21T01:00:51.283Z,51.23
2019-04-21T01:07:15.424Z,55.13
2019-04-21T01:09:56.056Z,41.47
2019-04-21T01:12:41.800Z,42.03
2019-04-21T01:15:35.213Z,46.60
2019-04-21T01:18:09.090Z,44.50
2019-04-21T01:20:33.878Z,90.55
2019-04-21T01:23:16.751Z,44.77
2019-04-21T01:26:16.765Z,49.53
2019-04-21T01:29:01.638Z,71.35
2019-04-21T01:31:48.453Z,43.17
2019-04-21T01:34:33.185Z,42.50
2019-04-21T01:37:12.827Z,46.20
2019-04-21T01:40:04.723Z,38.30
2019-04-21T01:42:39.434Z,38.00
2019-04-21T01:45:26.580Z,33.13
2019-04-21T01:48:06.519Z,35.17
2019-04-21T01:50:49.685Z,32.00
2019-04-21T01:53:58.959Z,38.57
2019-04-21T01:57:01.817Z,52.95
2019-04-21T01:59:39.631Z,39.43
2019-04-21T02:02:32.585Z,37.47
2019-04-21T02:05:18.857Z,33.23
2019-04-21T02:08:01.081Z,28.90
2019-04-21T02:10:46.213Z,26.47
2019-04-21T02:13:24.673Z,32.17
2019-04-21T02:16:14.073Z,32.37
2019-04-21T02:18:52.624Z,33.13
2019-04-21T02:21:36.672Z,33.77
2019-04-21T02:24:35.143Z,47.88
2019-04-21T02:27:06.473Z,135.20
2019-04-21T02:29:55.201Z,51.03
2019-04-21T02:32:48.014Z,35.37
2019-04-21T02:38:23.673Z,28.70
2019-04-21T02:40:57.909Z,31.87
2019-04-21T02:46:46.650Z,25.70
2019-04-21T02:49:56.598Z,25.57
2019-04-21T02:52:53.910Z,26.35
2019-04-21T02:55:42.015Z,24.17
2019-04-21T03:04:57.306Z,37.30
2019-04-21T03:10:28.693Z,28.43
2019-04-21T03:13:14.043Z,28.40
2019-04-21T03:16:09.732Z,26.47
2019-04-21T03:18:54.238Z,24.13
2019-04-21T03:21:28.973Z,31.70
2019-04-21T03:24:49.083Z,31.37
2019-04-21T03:27:09.692Z,25.30
2019-04-21T03:29:44.747Z,26.40
2019-04-21T03:33:13.042Z,25.47
2019-04-21T03:35:43.831Z,26.27
2019-04-21T03:40:50.670Z,25.67
2019-04-21T03:46:23.115Z,26.20
2019-04-21T03:49:10.630Z,35.57
2019-04-21T03:51:48.721Z,77.90
2019-04-21T03:59:11.576Z,66.10
2019-04-21T04:02:38.812Z,42.63
2019-04-21T04:06:03.941Z,142.28
2019-04-21T04:09:19.446Z,57.00
2019-04-21T04:18:46.608Z,36.83
2019-04-21T04:21:28.735Z,54.47
2019-04-21T04:24:08.865Z,83.23
2019-04-21T04:29:42.312Z,81.20
2019-04-21T04:32:23.454Z,82.00
2019-04-21T04:38:27.697Z,213.80
2019-04-21T04:41:28.897Z,104.53
2019-04-21T04:44:26.589Z,63.90
2019-04-21T04:52:37.884Z,57.23
2019-04-21T04:55:26.323Z,42.57
2019-04-21T04:58:25.087Z,25.30
2019-04-21T05:01:06.186Z,43.73
2019-04-21T05:03:49.480Z,37.93
2019-04-21T05:06:42.491Z,40.83
2019-04-21T05:09:14.794Z,50.30
2019-04-21T05:11:55.990Z,66.70
2019-04-21T05:14:46.186Z,73.03
2019-04-21T05:20:11.159Z,41.57
2019-04-21T05:22:51.851Z,26.63
2019-04-21T05:25:30.722Z,31.80
2019-04-21T05:28:12.692Z,25.33
2019-04-21T05:31:19.510Z,28.60
2019-04-21T05:34:17.964Z,36.90
2019-04-21T05:37:24.503Z,25.73
2019-04-21T05:40:18.332Z,30.70
2019-04-21T05:43:20.203Z,34.77
2019-04-21T05:46:18.434Z,35.60
2019-04-21T05:49:06.818Z,30.43
2019-04-21T05:52:05.449Z,31.23
2019-04-21T05:57:46.697Z,30.53
2019-04-21T06:00:46.622Z,37.55
2019-04-21T06:03:28.254Z,27.90
2019-04-21T06:06:13.582Z,36.63
2019-04-21T06:11:55.539Z,27.57
2019-04-21T06:14:52.087Z,23.37
2019-04-21T06:20:15.388Z,27.50
2019-04-21T06:22:56.831Z,34.13
2019-04-21T06:25:48.652Z,35.87
2019-04-21T06:28:41.682Z,25.82
2019-04-21T06:34:11.378Z,26.27
2019-04-21T06:37:18.271Z,20.13
2019-04-21T06:40:01.894Z,31.77
2019-04-21T06:42:32.489Z,148.55
2019-04-21T06:45:36.669Z,90.10
2019-04-21T06:51:27.593Z,25.77
2019-04-21T06:54:34.184Z,32.45
2019-04-21T06:57:25.440Z,30.20
2019-04-21T07:00:06.355Z,25.73
2019-04-21T07:02:52.142Z,27.20
2019-04-21T07:08:34.467Z,42.03
2019-04-21T07:11:21.659Z,30.20
2019-04-21T07:14:27.312Z,23.50
2019-04-21T07:22:45.985Z,22.50
2019-04-21T07:25:29.632Z,30.13
2019-04-21T07:28:20.947Z,27.73
2019-04-21T07:31:07.941Z,21.03
2019-04-21T07:33:53.781Z,19.90
2019-04-21T07:36:35.452Z,23.47
2019-04-21T07:39:00.189Z,25.70
2019-04-21T07:41:36.704Z,26.67
2019-04-21T07:44:25.765Z,26.77
2019-04-21T07:47:50.718Z,32.53
2019-04-21T07:51:38.995Z,26.50
2019-04-21T07:54:19.997Z,24.73
2019-04-21T07:56:41.894Z,21.47
2019-04-21T08:00:07.113Z,22.13
2019-04-21T08:02:40.739Z,20.10
2019-04-21T08:05:28.037Z,23.47
2019-04-21T08:08:15.933Z,20.67
2019-04-21T08:11:06.905Z,22.87
2019-04-21T08:13:55.104Z,21.93
2019-04-21T08:16:53.408Z,32.23
2019-04-21T08:19:32.469Z,24.00
2019-04-21T08:22:48.150Z,30.10
2019-04-21T08:25:54.873Z,25.03
2019-04-21T08:28:27.582Z,28.80
2019-04-21T08:31:32.659Z,35.80
2019-04-21T08:34:13.893Z,26.07
2019-04-21T08:37:05.483Z,21.47
2019-04-21T08:40:02.073Z,28.33
2019-04-21T08:42:55.107Z,25.00
2019-04-21T08:45:49.390Z,21.90
2019-04-21T08:48:52.637Z,28.33
2019-04-21T08:51:43.718Z,23.33
2019-04-21T08:54:38.663Z,29.77
2019-04-21T08:57:48.863Z,31.27
2019-04-21T09:00:58.985Z,21.57
2019-04-21T09:04:26.231Z,31.93
2019-04-21T09:07:21.336Z,39.95
2019-04-21T09:09:57.420Z,29.23
2019-04-21T09:12:40.466Z,28.53
2019-04-21T09:15:31.325Z,22.77
2019-04-21T09:18:10.191Z,30.10
2019-04-21T09:21:04.620Z,30.80
2019-04-21T09:24:26.638Z,28.47
2019-04-21T09:27:14.279Z,31.00
2019-04-21T09:29:47.916Z,33.17
2019-04-21T09:32:34.864Z,27.70
2019-04-21T09:35:18.358Z,27.87
2019-04-21T09:38:18.458Z,23.67
2019-04-21T09:40:56.097Z,40.43
2019-04-21T09:43:43.614Z,33.57
2019-04-21T09:46:20.879Z,35.77
2019-04-21T09:49:05.821Z,33.67
2019-04-21T09:52:00.473Z,38.98
2019-04-21T09:54:56.442Z,32.60
2019-04-21T09:57:47.998Z,52.30
2019-04-21T10:00:27.261Z,35.83
2019-04-21T10:03:11.668Z,37.37
2019-04-21T10:05:51.864Z,35.77
2019-04-21T10:08:32.331Z,41.07
2019-04-21T10:11:16.353Z,37.83
2019-04-21T10:14:07.473Z,46.27
2019-04-21T10:17:13.054Z,56.37
2019-04-21T10:19:55.089Z,62.73
2019-04-21T10:22:41.373Z,67.47
2019-04-21T10:25:22.909Z,35.58
2019-04-21T10:28:01.437Z,33.87
2019-04-21T10:30:43.104Z,29.13
2019-04-21T10:33:22.298Z,28.83
2019-04-21T10:36:35.114Z,37.43
2019-04-21T10:39:24.026Z,28.70
2019-04-21T10:42:19.513Z,38.07
2019-04-21T10:45:07.643Z,122.07
2019-04-21T10:47:47.217Z,57.47
2019-04-21T10:50:32.939Z,91.53
2019-04-21T10:53:36.809Z,69.30
2019-04-21T10:56:30.711Z,52.00
2019-04-21T10:59:20.460Z,45.80
2019-04-21T11:05:14.455Z,53.83
2019-04-21T11:08:10.007Z,51.23
2019-04-21T11:13:56.806Z,65.80
2019-04-21T11:17:14.260Z,56.97
2019-04-21T11:20:51.164Z,53.07
2019-04-21T11:23:38.932Z,110.12
2019-04-21T11:26:37.973Z,70.90
2019-04-21T11:29:21.242Z,65.90
2019-04-21T11:32:05.296Z,83.60
2019-04-21T11:34:46.954Z,61.70
2019-04-21T11:37:38.154Z,139.00
2019-04-21T11:40:42.215Z,90.10
2019-04-21T11:43:28.826Z,199.80
2019-04-21T11:46:42.484Z,128.27
2019-04-21T11:49:34.840Z,99.70
2019-04-21T11:52:31.238Z,93.72
2019-04-21T11:55:20.587Z,69.60
2019-04-21T11:59:09.986Z,55.43
2019-04-21T12:02:17.308Z,318.25
2019-04-21T12:04:48.063Z,404.30
2019-04-21T12:07:47.551Z,182.50
2019-04-21T12:10:39.725Z,97.60
2019-04-21T12:13:28.080Z,93.10
2019-04-21T12:19:27.899Z,71.37
2019-04-21T12:22:25.345Z,80.37
2019-04-21T12:25:07.152Z,57.67
2019-04-21T12:27:56.104Z,73.43
2019-04-21T12:31:45.499Z,54.87
2019-04-21T12:34:37.438Z,61.97
2019-04-21T12:37:28.933Z,48.47
2019-04-21T12:40:10.822Z,57.10
2019-04-21T12:42:56.808Z,85.50
2019-04-21T12:49:29.715Z,75.93
2019-04-21T12:55:48.006Z,71.50
2019-04-21T13:22:44.321Z,244.03
2019-04-21T13:29:06.344Z,105.47
2019-04-21T13:32:45.365Z,95.35
2019-04-21T13:37:35.210Z,67.53
2019-04-21T13:38:32.345Z,76.87
2019-04-21T13:45:02.457Z,60.87
2019-04-21T14:18:10.939Z,41.40
2019-04-21T14:58:35.039Z,42.27
2019-04-21T15:01:49.553Z,39.03
2019-04-21T15:04:57.662Z,39.00
2019-04-21T15:34:45.129Z,39.93
2019-04-21T15:48:55.181Z,329.33
2019-04-21T15:52:31.787Z,212.63
2019-04-21T15:55:50.804Z,88.07
2019-04-21T15:59:14.605Z,55.20
2019-04-21T16:02:36.760Z,44.10
2019-04-21T16:05:30.749Z,42.47
2019-04-21T16:08:52.511Z,44.20
2019-04-21T16:11:46.938Z,52.17
2019-04-21T16:15:16.552Z,45.23
2019-04-21T16:18:45.817Z,40.90
2019-04-21T16:22:26.470Z,39.50
2019-04-21T16:25:10.638Z,44.77
2019-04-21T16:28:01.421Z,43.83
2019-04-21T16:30:42.546Z,46.47
2019-04-21T16:33:25.139Z,39.47
2019-04-21T16:36:09.600Z,44.53
2019-04-21T16:38:53.615Z,51.77
2019-04-21T16:41:40.283Z,39.37
2019-04-21T16:44:21.024Z,48.87
2019-04-21T16:47:07.636Z,36.90
2019-04-21T16:49:49.870Z,37.17
2019-04-21T16:52:38.385Z,41.73
2019-04-21T16:55:28.800Z,48.20
2019-04-21T16:58:38.785Z,47.63
2019-04-21T17:01:27.645Z,42.08
2019-04-21T17:04:08.649Z,43.03
2019-04-21T17:06:53.223Z,46.43
2019-04-21T17:09:32.954Z,38.87
2019-04-21T17:12:24.054Z,44.57
2019-04-21T17:15:21.122Z,52.27
2019-04-21T17:18:22.823Z,57.10
2019-04-21T17:20:58.935Z,50.70
2019-04-21T17:23:40.716Z,56.93
2019-04-21T17:26:39.419Z,56.60
2019-04-21T17:29:18.647Z,56.35
2019-04-21T17:32:07.429Z,53.67
2019-04-21T17:35:12.264Z,46.40
2019-04-21T17:38:00.249Z,47.20
2019-04-21T17:40:49.807Z,44.63
2019-04-21T17:43:49.804Z,44.03
2019-04-21T17:46:45.608Z,49.30
2019-04-21T17:49:23.622Z,43.83
2019-04-21T17:52:23.100Z,47.83
2019-04-21T17:55:19.770Z,43.87
2019-04-21T17:58:21.719Z,35.27
2019-04-21T18:03:58.845Z,37.37
2019-04-21T18:06:35.213Z,32.40
2019-04-21T18:09:24.532Z,29.13
2019-04-21T18:12:01.963Z,28.13
2019-04-21T18:14:24.300Z,32.48
2019-04-21T18:17:06.843Z,34.87
2019-04-21T18:19:57.117Z,33.67
2019-04-21T18:22:58.379Z,30.92
2019-04-21T18:25:47.434Z,29.87
2019-04-21T18:28:22.910Z,31.23
2019-04-21T18:31:10.178Z,29.70
2019-04-21T18:34:06.116Z,28.33
2019-04-21T18:36:50.241Z,32.60
2019-04-21T18:39:57.404Z,35.63
2019-04-21T18:42:52.958Z,32.70
2019-04-21T18:46:08.831Z,34.73
2019-04-21T18:48:43.952Z,42.58
2019-04-21T18:51:43.489Z,37.73
2019-04-21T18:54:41.397Z,43.43
2019-04-21T18:57:17.229Z,36.47
2019-04-21T18:59:51.324Z,39.73
2019-04-21T19:02:36.742Z,33.07
2019-04-21T19:05:15.525Z,36.40
2019-04-21T19:08:10.273Z,41.37
2019-04-21T19:10:56.434Z,41.87
2019-04-21T19:14:15.381Z,32.47
2019-04-21T19:16:50.965Z,36.25
2019-04-21T19:19:41.444Z,37.80
2019-04-21T19:22:19.833Z,32.57
2019-04-21T19:24:56.619Z,38.43
2019-04-21T19:27:31.132Z,38.50
2019-04-21T19:33:00.786Z,37.60
2019-04-21T19:35:19.442Z,35.63
2019-04-21T19:38:08.236Z,41.20
2019-04-21T19:40:59.258Z,35.70
2019-04-21T19:43:45.911Z,36.75
2019-04-21T19:46:23.675Z,33.80
2019-04-21T19:49:10.689Z,33.00
2019-04-21T19:51:46.241Z,33.80
2019-04-21T19:54:27.721Z,34.70
2019-04-21T19:57:02.884Z,35.23
2019-04-21T19:59:52.056Z,34.17
2019-04-21T20:02:32.277Z,34.90
2019-04-21T20:05:20.463Z,41.63
2019-04-21T20:08:11.344Z,33.63
2019-04-21T20:10:55.599Z,36.07
2019-04-21T20:13:48.754Z,41.53
2019-04-21T20:16:18.982Z,38.30
2019-04-21T20:18:51.177Z,33.40
2019-04-21T20:21:31.345Z,37.37
2019-04-21T20:24:15.052Z,25.97
2019-04-21T20:27:00.072Z,31.33
2019-04-21T20:29:48.795Z,52.73
2019-04-21T20:32:30.536Z,40.67
2019-04-21T20:35:25.121Z,43.53
2019-04-21T20:38:04.675Z,33.78
2019-04-21T20:40:41.301Z,34.33
2019-04-21T20:43:38.666Z,33.40
2019-04-21T20:46:17.179Z,33.13
2019-04-21T20:49:00.167Z,31.73
2019-04-21T20:51:42.516Z,29.33
2019-04-21T20:54:26.006Z,35.70
2019-04-21T20:57:12.603Z,38.23
2019-04-21T20:59:43.939Z,32.67
2019-04-21T21:02:37.172Z,26.97
2019-04-21T21:05:05.290Z,32.00
2019-04-21T21:07:57.027Z,39.00
2019-04-21T21:10:35.741Z,30.10
2019-04-21T21:13:20.449Z,33.57
2019-04-21T21:16:10.796Z,26.53
2019-04-21T21:21:28.131Z,31.17
2019-04-21T21:24:08.709Z,28.23
2019-04-21T21:26:54.953Z,34.80
2019-04-21T21:29:45.154Z,25.83
2019-04-21T21:35:00.893Z,31.57
2019-04-21T21:37:43.958Z,31.33
2019-04-21T21:40:26.768Z,34.57
2019-04-21T21:42:51.246Z,27.33
2019-04-21T21:45:37.694Z,28.87
2019-04-21T21:48:28.878Z,30.67
2019-04-21T21:51:04.224Z,26.87
2019-04-21T21:53:38.174Z,26.80
2019-04-21T21:56:14.641Z,29.60
2019-04-21T21:58:55.247Z,28.43
2019-04-21T22:01:45.510Z,34.58
2019-04-21T22:04:26.357Z,36.23
2019-04-21T22:07:07.247Z,48.90
2019-04-21T22:09:46.285Z,42.57
2019-04-21T22:12:25.852Z,43.70
2019-04-21T22:15:10.867Z,43.47
2019-04-21T22:18:07.525Z,50.57
2019-04-21T22:20:47.501Z,51.80
2019-04-21T22:23:34.014Z,51.88
2019-04-21T22:26:05.364Z,49.43
2019-04-21T22:28:45.590Z,53.38
2019-04-21T22:31:31.555Z,48.50
2019-04-21T22:34:14.099Z,42.93
2019-04-21T22:37:12.488Z,53.70
2019-04-21T22:39:53.110Z,52.07
2019-04-21T22:42:33.212Z,47.10
2019-04-21T22:45:37.578Z,48.57
2019-04-21T22:48:23.611Z,50.33
2019-04-21T22:51:19.173Z,59.55
2019-04-21T22:53:55.772Z,56.13
2019-04-21T22:56:50.412Z,59.17
2019-04-21T22:59:22.904Z,55.57
2019-04-21T23:02:13.684Z,56.97
2019-04-21T23:04:54.953Z,53.93
2019-04-21T23:07:41.430Z,49.87
2019-04-21T23:10:25.310Z,57.47
2019-04-21T23:13:13.382Z,92.97
2019-04-21T23:15:57.275Z,134.63
2019-04-21T23:18:46.403Z,83.00
2019-04-21T23:21:30.455Z,60.93
2019-04-21T23:24:26.218Z,54.87
2019-04-21T23:26:56.166Z,50.10
2019-04-21T23:29:52.645Z,56.03
2019-04-21T23:32:24.123Z,48.73
2019-04-21T23:35:06.187Z,61.13
2019-04-21T23:37:44.607Z,57.97
2019-04-21T23:40:23.300Z,47.30
2019-04-21T23:43:09.653Z,66.13
2019-04-21T23:45:48.714Z,64.70
2019-04-21T23:48:40.507Z,64.90
2019-04-21T23:51:21.632Z,67.63
2019-04-21T23:53:57.414Z,64.32
2019-04-21T23:56:40.896Z,55.97
2019-04-21T23:59:20.601Z,60.53
